createdAt,value
2023-02-18T00:02:17.358Z,38.92
2023-02-18T00:05:19.835Z,36.83
2023-02-18T00:08:22.782Z,37.47
2023-02-18T00:11:25.518Z,40.17
2023-02-18T00:14:28.060Z,38.38
2023-02-18T00:17:30.626Z,36.97
2023-02-18T00:20:36.199Z,38.37
2023-02-18T00:23:38.572Z,35.65
2023-02-18T00:26:41.632Z,35.53
2023-02-18T00:29:44.117Z,34.67
2023-02-18T00:32:46.610Z,36.08
2023-02-18T00:35:49.313Z,33.47
2023-02-18T00:38:58.083Z,36.08
2023-02-18T00:42:00.539Z,35.25
2023-02-18T00:45:03.003Z,32.05
2023-02-18T00:48:05.625Z,32.88
2023-02-18T00:51:08.410Z,31.37
2023-02-18T00:54:10.827Z,31.75
2023-02-18T00:57:13.249Z,32.53
2023-02-18T01:00:16.065Z,28.93
2023-02-18T01:03:19.074Z,26.90
2023-02-18T01:06:22.404Z,25.70
2023-02-18T01:09:25.880Z,23.10
2023-02-18T01:12:28.720Z,24.30
2023-02-18T01:15:31.546Z,24.85
2023-02-18T01:18:34.614Z,25.08
2023-02-18T01:21:39.518Z,23.03
2023-02-18T01:24:41.914Z,24.17
2023-02-18T01:27:44.379Z,23.50
2023-02-18T01:30:46.813Z,18.77
2023-02-18T01:33:49.143Z,21.30
2023-02-18T01:36:51.526Z,24.60
2023-02-18T01:39:54.087Z,22.52
2023-02-18T01:42:57.011Z,22.63
2023-02-18T01:46:03.271Z,19.55
2023-02-18T01:49:06.608Z,17.00
2023-02-18T01:52:15.173Z,20.20
2023-02-18T01:55:17.628Z,18.33
2023-02-18T01:58:20.400Z,20.33
2023-02-18T02:01:24.032Z,20.70
2023-02-18T02:04:26.946Z,26.05
2023-02-18T02:07:30.039Z,23.48
2023-02-18T02:11:02.339Z,27.75
2023-02-18T02:14:40.010Z,31.17
2023-02-18T02:17:53.294Z,34.05
2023-02-18T02:21:04.378Z,27.67
2023-02-18T02:24:35.673Z,29.10
2023-02-18T02:28:06.490Z,35.17
2023-02-18T02:31:23.076Z,32.22
2023-02-18T02:34:37.253Z,30.37
2023-02-18T02:37:42.433Z,29.25
2023-02-18T02:41:40.358Z,27.60
2023-02-18T02:45:06.410Z,29.23
2023-02-18T02:48:43.861Z,29.02
2023-02-18T02:52:01.924Z,26.85
2023-02-18T02:55:11.850Z,22.85
2023-02-18T02:58:18.820Z,26.33
2023-02-18T03:01:51.455Z,24.30
2023-02-18T03:05:16.327Z,21.77
2023-02-18T03:08:46.581Z,22.80
2023-02-18T03:12:05.573Z,28.15
2023-02-18T03:15:40.842Z,22.08
2023-02-18T03:18:57.439Z,23.23
2023-02-18T03:22:06.680Z,20.42
2023-02-18T03:25:12.327Z,21.17
2023-02-18T03:28:19.162Z,20.73
2023-02-18T03:31:25.505Z,23.73
2023-02-18T03:34:36.570Z,23.35
2023-02-18T03:37:45.665Z,18.02
2023-02-18T03:40:51.187Z,20.57
2023-02-18T03:44:00.517Z,18.80
2023-02-18T03:47:03.735Z,17.58
2023-02-18T03:50:07.041Z,15.35
2023-02-18T03:53:09.534Z,17.80
2023-02-18T03:56:13.320Z,13.55
2023-02-18T03:59:15.825Z,10.80
2023-02-18T04:02:18.231Z,13.33
2023-02-18T04:05:20.958Z,12.43
2023-02-18T04:08:23.690Z,12.30
2023-02-18T04:11:26.267Z,10.10
2023-02-18T04:14:28.657Z,12.82
2023-02-18T04:17:33.035Z,9.80
2023-02-18T04:20:35.666Z,10.38
2023-02-18T04:23:38.185Z,11.98
2023-02-18T04:26:40.666Z,8.13
2023-02-18T04:29:43.157Z,9.20
2023-02-18T04:32:45.755Z,9.47
2023-02-18T04:35:48.162Z,7.75
2023-02-18T04:38:50.580Z,10.00
2023-02-18T04:41:53.595Z,11.30
2023-02-18T04:44:56.038Z,6.97
2023-02-18T04:47:58.625Z,6.53
2023-02-18T04:51:01.413Z,7.13
2023-02-18T04:54:05.144Z,7.28
2023-02-18T04:57:07.600Z,7.28
2023-02-18T05:00:14.935Z,6.70
2023-02-18T05:03:17.796Z,4.17
2023-02-18T05:06:20.202Z,6.07
2023-02-18T05:09:22.893Z,7.57
2023-02-18T05:12:25.304Z,13.20
2023-02-18T05:15:27.828Z,9.55
2023-02-18T05:18:30.460Z,9.32
2023-02-18T05:21:33.263Z,5.47
2023-02-18T05:24:35.768Z,4.28
2023-02-18T05:27:38.186Z,4.68
2023-02-18T05:30:40.765Z,4.05
2023-02-18T05:33:43.257Z,4.43
2023-02-18T05:36:45.705Z,6.18
2023-02-18T05:39:48.194Z,3.92
2023-02-18T05:42:50.647Z,3.67
2023-02-18T05:45:53.104Z,3.85
2023-02-18T05:48:55.529Z,5.13
2023-02-18T05:51:59.105Z,6.10
2023-02-18T05:55:01.590Z,5.60
2023-02-18T05:58:04.238Z,5.38
2023-02-18T06:01:06.773Z,3.13
2023-02-18T06:04:09.567Z,5.13
2023-02-18T06:07:12.061Z,3.28
2023-02-18T06:10:14.513Z,4.07
2023-02-18T06:13:17.135Z,3.87
2023-02-18T06:16:19.652Z,4.53
2023-02-18T06:19:23.355Z,3.50
2023-02-18T06:22:25.702Z,2.13
2023-02-18T06:25:28.083Z,3.75
2023-02-18T06:28:30.646Z,2.55
2023-02-18T06:31:34.342Z,5.20
2023-02-18T06:34:36.779Z,3.33
2023-02-18T06:37:39.132Z,5.68
2023-02-18T06:40:41.598Z,3.63
2023-02-18T06:43:44.018Z,5.20
2023-02-18T06:46:46.462Z,3.17
2023-02-18T06:49:48.877Z,2.92
2023-02-18T06:52:51.203Z,3.80
2023-02-18T06:55:53.595Z,4.45
2023-02-18T06:58:55.954Z,3.58
2023-02-18T07:01:58.375Z,7.90
2023-02-18T07:05:00.927Z,7.30
2023-02-18T07:08:03.284Z,4.93
2023-02-18T07:11:06.957Z,5.20
2023-02-18T07:14:09.515Z,7.50
2023-02-18T07:17:11.927Z,6.22
2023-02-18T07:20:15.355Z,4.45
2023-02-18T07:23:17.704Z,6.00
2023-02-18T07:26:20.145Z,6.03
2023-02-18T07:29:22.533Z,4.82
2023-02-18T07:32:25.133Z,3.05
2023-02-18T07:35:27.836Z,4.70
2023-02-18T07:38:30.861Z,4.32
2023-02-18T07:41:33.360Z,3.78
2023-02-18T07:44:36.576Z,4.07
2023-02-18T07:47:39.620Z,3.00
2023-02-18T07:50:44.244Z,3.22
2023-02-18T07:53:46.684Z,2.75
2023-02-18T07:56:49.262Z,2.20
2023-02-18T07:59:51.634Z,1.67
2023-02-18T08:02:54.101Z,2.80
2023-02-18T08:05:57.261Z,2.67
2023-02-18T08:08:59.675Z,2.60
2023-02-18T08:12:02.224Z,4.75
2023-02-18T08:15:05.077Z,3.00
2023-02-18T08:18:14.410Z,2.50
2023-02-18T08:21:19.963Z,2.85
2023-02-18T08:24:22.345Z,5.47
2023-02-18T08:27:25.161Z,3.72
2023-02-18T08:30:28.805Z,6.38
2023-02-18T08:33:31.340Z,3.22
2023-02-18T08:36:33.705Z,12.73
2023-02-18T08:39:39.574Z,14.60
2023-02-18T08:42:42.264Z,8.02
2023-02-18T08:45:45.125Z,4.47
2023-02-18T08:48:47.768Z,5.85
2023-02-18T08:51:50.997Z,18.63
2023-02-18T08:54:53.496Z,5.05
2023-02-18T08:57:56.245Z,13.70
2023-02-18T09:01:02.521Z,6.13
2023-02-18T09:04:05.288Z,7.90
2023-02-18T09:07:07.764Z,21.63
2023-02-18T09:10:11.309Z,15.15
2023-02-18T09:13:14.321Z,11.40
2023-02-18T09:16:18.580Z,17.07
2023-02-18T09:19:21.011Z,17.77
2023-02-18T09:22:23.569Z,24.42
2023-02-18T09:25:25.907Z,23.77
2023-02-18T09:28:28.341Z,5.90
2023-02-18T09:31:30.859Z,4.32
2023-02-18T09:34:33.919Z,5.22
2023-02-18T09:37:36.448Z,3.97
2023-02-18T09:40:44.779Z,6.07
2023-02-18T09:43:52.251Z,5.68
2023-02-18T09:47:00.472Z,3.10
2023-02-18T09:50:15.390Z,2.70
2023-02-18T09:53:18.510Z,3.58
2023-02-18T09:56:28.289Z,3.65
2023-02-18T09:59:31.214Z,2.70
2023-02-18T10:02:36.085Z,4.00
2023-02-18T10:05:43.012Z,6.85
2023-02-18T10:08:50.048Z,5.83
2023-02-18T10:11:57.307Z,5.72
2023-02-18T10:15:01.341Z,5.70
2023-02-18T10:18:07.108Z,6.33
2023-02-18T10:21:13.391Z,4.70
2023-02-18T10:24:46.608Z,4.85
2023-02-18T10:27:51.321Z,3.63
2023-02-18T10:31:02.318Z,3.40
2023-02-18T10:34:16.478Z,2.53
2023-02-18T10:37:46.093Z,40.78
2023-02-18T10:41:03.461Z,35.10
2023-02-18T10:44:57.037Z,14.13
2023-02-18T10:48:18.716Z,10.40
2023-02-18T10:51:24.574Z,6.63
2023-02-18T10:54:47.364Z,3.38
2023-02-18T10:57:52.580Z,3.17
2023-02-18T11:00:55.081Z,3.65
2023-02-18T11:04:19.053Z,5.97
2023-02-18T11:07:35.130Z,1.75
2023-02-18T11:10:43.982Z,5.90
2023-02-18T11:13:53.370Z,5.17
2023-02-18T11:17:09.666Z,4.43
2023-02-18T11:20:33.514Z,3.13
2023-02-18T11:23:47.890Z,2.57
2023-02-18T11:26:50.286Z,2.78
2023-02-18T11:29:59.503Z,1.58
2023-02-18T11:33:27.085Z,1.55
2023-02-18T11:36:35.595Z,1.20
2023-02-18T11:39:45.481Z,1.55
2023-02-18T11:42:48.026Z,1.25
2023-02-18T11:46:09.060Z,1.33
2023-02-18T11:49:21.771Z,1.65
2023-02-18T11:52:27.512Z,1.13
2023-02-18T11:55:31.139Z,1.87
2023-02-18T11:58:43.772Z,1.40
2023-02-18T12:01:56.218Z,2.63
2023-02-18T12:05:11.750Z,1.85
2023-02-18T12:08:18.850Z,3.17
2023-02-18T12:11:31.618Z,3.15
2023-02-18T12:14:36.060Z,1.23
2023-02-18T12:18:05.068Z,4.90
2023-02-18T12:21:27.235Z,2.17
2023-02-18T12:24:48.950Z,3.83
2023-02-18T12:27:54.063Z,1.67
2023-02-18T12:31:19.110Z,2.05
2023-02-18T12:34:59.816Z,6.22
2023-02-18T12:38:26.072Z,0.90
2023-02-18T12:41:40.280Z,1.40
2023-02-18T12:45:26.166Z,2.45
2023-02-18T12:48:56.380Z,1.70
2023-02-18T12:52:32.195Z,2.80
2023-02-18T12:55:37.202Z,1.52
2023-02-18T12:58:48.350Z,1.23
2023-02-18T13:02:05.572Z,0.70
2023-02-18T13:05:38.212Z,3.63
2023-02-18T13:09:06.424Z,2.17
2023-02-18T13:12:27.026Z,2.10
2023-02-18T13:15:43.410Z,3.63
2023-02-18T13:19:01.190Z,2.42
2023-02-18T13:22:07.914Z,1.40
2023-02-18T13:25:13.682Z,1.33
2023-02-18T13:28:46.982Z,5.82
2023-02-18T13:32:12.794Z,2.25
2023-02-18T13:35:24.985Z,2.57
2023-02-18T13:38:51.989Z,3.88
2023-02-18T13:42:18.171Z,4.20
2023-02-18T13:45:30.430Z,4.20
2023-02-18T13:48:40.447Z,5.05
2023-02-18T13:51:48.655Z,11.45
2023-02-18T13:54:52.136Z,9.23
2023-02-18T13:57:55.747Z,3.53
2023-02-18T14:01:22.705Z,3.67
2023-02-18T14:04:37.589Z,3.72
2023-02-18T14:07:49.189Z,3.07
2023-02-18T14:11:14.731Z,6.70
2023-02-18T14:14:26.581Z,4.68
2023-02-18T14:17:35.939Z,4.15
2023-02-18T14:20:38.300Z,4.15
2023-02-18T14:23:57.288Z,4.25
2023-02-18T14:27:14.591Z,6.35
2023-02-18T14:30:22.767Z,3.97
2023-02-18T14:33:25.276Z,6.25
2023-02-18T14:36:36.751Z,3.05
2023-02-18T14:40:01.841Z,5.30
2023-02-18T14:43:43.889Z,7.22
2023-02-18T14:46:52.325Z,3.25
2023-02-18T14:50:03.575Z,6.50
2023-02-18T14:53:13.362Z,6.63
2023-02-18T14:56:19.851Z,4.68
2023-02-18T14:59:26.901Z,7.05
2023-02-18T15:02:33.114Z,10.10
2023-02-18T15:05:38.241Z,7.85
2023-02-18T15:08:40.983Z,7.70
2023-02-18T15:11:56.746Z,7.77
2023-02-18T15:15:05.138Z,6.20
2023-02-18T15:18:20.648Z,4.40
2023-02-18T15:21:39.335Z,6.95
2023-02-18T15:24:41.790Z,10.80
2023-02-18T15:27:47.423Z,7.72
2023-02-18T15:30:49.858Z,12.20
2023-02-18T15:33:52.682Z,8.63
2023-02-18T15:36:56.294Z,7.80
2023-02-18T15:39:59.270Z,7.25
2023-02-18T15:43:05.364Z,4.03
2023-02-18T15:46:14.366Z,7.82
2023-02-18T15:49:21.014Z,7.25
2023-02-18T15:52:41.606Z,7.25
2023-02-18T15:55:48.934Z,6.45
2023-02-18T15:59:07.357Z,8.57
2023-02-18T16:02:21.935Z,3.92
2023-02-18T16:05:27.261Z,10.87
2023-02-18T16:08:29.783Z,8.00
2023-02-18T16:11:59.627Z,4.57
2023-02-18T16:15:02.562Z,5.43
2023-02-18T16:18:07.178Z,12.63
2023-02-18T16:21:18.802Z,20.25
2023-02-18T16:24:27.322Z,29.83
2023-02-18T16:27:36.466Z,19.30
2023-02-18T16:30:41.543Z,17.45
2023-02-18T16:33:44.073Z,29.42
2023-02-18T16:37:04.878Z,23.43
2023-02-18T16:40:26.441Z,11.30
2023-02-18T16:43:32.801Z,21.83
2023-02-18T16:46:35.361Z,37.50
2023-02-18T16:49:40.459Z,7.47
2023-02-18T16:52:43.075Z,43.40
2023-02-18T16:55:45.817Z,22.10
2023-02-18T16:58:50.620Z,38.22
2023-02-18T17:01:53.162Z,24.75
2023-02-18T17:04:57.494Z,22.75
2023-02-18T17:08:25.253Z,32.13
2023-02-18T17:11:34.076Z,39.92
2023-02-18T17:14:36.476Z,52.55
2023-02-18T17:17:39.098Z,29.70
2023-02-18T17:20:41.852Z,18.52
2023-02-18T17:23:45.193Z,48.97
2023-02-18T17:26:48.284Z,37.97
2023-02-18T17:29:51.115Z,9.10
2023-02-18T17:32:53.664Z,11.88
2023-02-18T17:35:56.177Z,29.58
2023-02-18T17:39:02.526Z,32.17
2023-02-18T17:42:05.947Z,11.27
2023-02-18T17:45:21.875Z,23.05
2023-02-18T17:48:25.471Z,5.47
2023-02-18T17:51:29.849Z,5.20
2023-02-18T17:54:32.541Z,6.60
2023-02-18T17:57:35.926Z,86.10
2023-02-18T18:00:45.213Z,3.78
2023-02-18T18:03:47.617Z,9.32
2023-02-18T18:06:51.933Z,10.95
2023-02-18T18:09:54.621Z,17.53
2023-02-18T18:13:03.247Z,2.72
2023-02-18T18:16:06.070Z,4.07
2023-02-18T18:19:08.793Z,3.70
2023-02-18T18:22:11.863Z,3.95
2023-02-18T18:25:26.394Z,3.40
2023-02-18T18:28:28.799Z,4.38
2023-02-18T18:31:32.455Z,4.88
2023-02-18T18:34:35.654Z,5.50
2023-02-18T18:37:38.342Z,3.95
2023-02-18T18:40:41.220Z,2.90
2023-02-18T18:43:43.964Z,7.80
2023-02-18T18:46:46.338Z,10.52
2023-02-18T18:49:49.058Z,20.80
2023-02-18T18:52:52.705Z,19.02
2023-02-18T18:55:58.109Z,21.50
2023-02-18T18:59:01.188Z,31.55
2023-02-18T19:02:04.033Z,21.35
2023-02-18T19:05:14.950Z,19.05
2023-02-18T19:08:20.180Z,20.02
2023-02-18T19:11:22.883Z,19.20
2023-02-18T19:14:25.541Z,20.42
2023-02-18T19:17:28.221Z,18.08
2023-02-18T19:20:36.059Z,19.87
2023-02-18T19:23:39.553Z,23.58
2023-02-18T19:26:42.213Z,33.80
2023-02-18T19:29:45.627Z,30.60
2023-02-18T19:32:49.968Z,33.50
2023-02-18T19:35:52.379Z,30.42
2023-02-18T19:38:55.021Z,28.35
2023-02-18T19:41:57.707Z,33.20
2023-02-18T19:45:00.513Z,35.67
2023-02-18T19:48:03.345Z,36.72
2023-02-18T19:51:07.392Z,39.60
2023-02-18T19:54:10.255Z,29.10
2023-02-18T19:57:13.124Z,25.77
2023-02-18T20:00:18.100Z,31.48
2023-02-18T20:03:20.957Z,66.55
2023-02-18T20:06:24.016Z,41.35
2023-02-18T20:09:26.527Z,29.95
2023-02-18T20:12:29.477Z,27.10
2023-02-18T20:15:32.102Z,38.08
2023-02-18T20:18:34.826Z,21.85
2023-02-18T20:21:37.526Z,30.67
2023-02-18T20:24:40.495Z,24.10
2023-02-18T20:27:59.461Z,24.88
2023-02-18T20:31:08.069Z,23.25
2023-02-18T20:34:11.854Z,20.10
2023-02-18T20:37:14.651Z,20.38
2023-02-18T20:40:17.738Z,23.13
2023-02-18T20:43:20.359Z,20.87
2023-02-18T20:46:23.797Z,20.52
2023-02-18T20:49:26.414Z,15.95
2023-02-18T20:52:28.966Z,17.07
2023-02-18T20:55:31.610Z,20.85
2023-02-18T20:58:35.022Z,22.33
2023-02-18T21:01:38.018Z,22.70
2023-02-18T21:04:42.595Z,22.60
2023-02-18T21:07:45.307Z,18.35
2023-02-18T21:10:49.605Z,14.90
2023-02-18T21:13:54.396Z,13.33
2023-02-18T21:16:57.058Z,9.45
2023-02-18T21:20:00.890Z,6.90
2023-02-18T21:23:04.752Z,5.57
2023-02-18T21:26:08.686Z,7.05
2023-02-18T21:29:12.313Z,2.88
2023-02-18T21:32:14.965Z,2.05
2023-02-18T21:35:17.618Z,1.63
2023-02-18T21:38:20.807Z,2.97
2023-02-18T21:41:23.727Z,2.53
2023-02-18T21:44:36.701Z,1.33
2023-02-18T21:47:44.523Z,1.75
2023-02-18T21:50:48.138Z,1.60
2023-02-18T21:53:50.789Z,0.73
2023-02-18T21:56:54.329Z,1.60
2023-02-18T21:59:57.118Z,2.75
2023-02-18T22:02:59.683Z,2.38
2023-02-18T22:06:02.078Z,1.52
2023-02-18T22:09:05.871Z,1.55
2023-02-18T22:12:09.080Z,1.92
2023-02-18T22:15:11.658Z,1.13
2023-02-18T22:18:14.020Z,2.10
2023-02-18T22:21:16.678Z,1.77
2023-02-18T22:24:19.615Z,1.70
2023-02-18T22:27:21.991Z,2.90
2023-02-18T22:30:24.338Z,1.52
2023-02-18T22:33:27.345Z,1.40
2023-02-18T22:36:30.718Z,2.10
2023-02-18T22:39:33.243Z,2.47
2023-02-18T22:42:35.757Z,2.33
2023-02-18T22:45:38.222Z,2.63
2023-02-18T22:48:41.516Z,2.38
2023-02-18T22:51:44.957Z,1.50
2023-02-18T22:54:47.596Z,1.83
2023-02-18T22:57:49.961Z,1.60
2023-02-18T23:00:52.416Z,2.10
2023-02-18T23:03:57.502Z,1.45
2023-02-18T23:06:59.935Z,1.98
2023-02-18T23:10:02.294Z,2.58
2023-02-18T23:13:04.882Z,2.05
2023-02-18T23:16:11.735Z,1.53
2023-02-18T23:19:14.312Z,2.05
2023-02-18T23:22:28.316Z,1.05
2023-02-18T23:25:32.374Z,1.30
2023-02-18T23:28:47.670Z,1.23
2023-02-18T23:31:50.174Z,1.35
2023-02-18T23:34:52.575Z,1.27
2023-02-18T23:38:04.562Z,3.58
2023-02-18T23:41:08.284Z,2.10
2023-02-18T23:44:14.491Z,2.45
2023-02-18T23:47:16.852Z,2.30
2023-02-18T23:50:19.346Z,1.50
2023-02-18T23:53:25.440Z,2.22
2023-02-18T23:56:28.657Z,1.43
2023-02-18T23:59:31.107Z,1.52
